createdAt,value
2022-09-17T00:00:58.866Z,0.17
2022-09-17T00:05:01.647Z,0.00
2022-09-17T00:09:07.692Z,0.52
2022-09-17T00:13:11.744Z,0.15
2022-09-17T00:17:14.483Z,0.00
2022-09-17T00:21:17.789Z,0.20
2022-09-17T00:25:21.847Z,0.00
2022-09-17T00:29:24.495Z,0.00
2022-09-17T00:33:27.439Z,0.00
2022-09-17T00:37:30.097Z,0.38
2022-09-17T00:41:36.579Z,0.00
2022-09-17T00:49:43.573Z,0.28
2022-09-17T00:53:46.441Z,0.10
2022-09-17T00:57:53.675Z,0.00
2022-09-17T01:01:56.502Z,0.60
2022-09-17T01:06:11.663Z,0.00
2022-09-17T01:10:28.992Z,0.00
2022-09-17T01:14:47.667Z,0.15
2022-09-17T01:19:03.735Z,0.00
2022-09-17T01:23:29.891Z,0.27
2022-09-17T01:28:18.725Z,0.00
2022-09-17T01:32:27.099Z,0.00
2022-09-17T01:36:42.645Z,0.00
2022-09-17T01:40:52.067Z,0.00
2022-09-17T01:45:01.321Z,0.73
2022-09-17T01:49:08.485Z,21.73
2022-09-17T01:53:12.976Z,0.00
2022-09-17T01:57:19.951Z,1.55
2022-09-17T02:01:25.171Z,0.00
2022-09-17T02:05:33.621Z,0.17
2022-09-17T02:09:41.635Z,0.00
2022-09-17T02:13:51.234Z,0.00
2022-09-17T02:17:58.407Z,0.85
2022-09-17T02:22:06.193Z,0.00
2022-09-17T02:26:13.217Z,0.10
2022-09-17T02:30:16.295Z,0.00
2022-09-17T02:34:20.027Z,0.00
2022-09-17T02:38:26.211Z,0.00
2022-09-17T02:42:33.930Z,0.00
2022-09-17T02:47:01.134Z,0.45
2022-09-17T02:55:22.980Z,0.00
2022-09-17T02:59:30.578Z,0.00
2022-09-17T03:03:37.141Z,0.00
2022-09-17T03:11:43.983Z,0.00
2022-09-17T03:15:46.723Z,0.15
2022-09-17T03:19:49.407Z,0.00
2022-09-17T03:23:52.890Z,0.00
2022-09-17T03:27:56.910Z,0.38
2022-09-17T03:32:00.288Z,0.00
2022-09-17T03:36:03.270Z,0.10
2022-09-17T03:40:07.209Z,0.00
2022-09-17T03:44:11.435Z,0.00
2022-09-17T03:48:14.139Z,0.00
2022-09-17T03:52:16.845Z,0.00
2022-09-17T03:56:19.722Z,0.00
2022-09-17T04:00:24.237Z,0.00
2022-09-17T04:04:26.980Z,0.00
2022-09-17T04:08:29.701Z,0.00
2022-09-17T04:12:32.385Z,0.00
2022-09-17T04:16:36.438Z,0.00
2022-09-17T04:20:39.273Z,0.00
2022-09-17T04:24:41.947Z,0.00
2022-09-17T04:28:44.686Z,0.00
2022-09-17T04:32:48.707Z,0.08
2022-09-17T04:36:51.513Z,0.00
2022-09-17T04:40:57.198Z,0.00
2022-09-17T04:44:59.942Z,0.00
2022-09-17T04:49:03.973Z,0.10
2022-09-17T04:53:06.694Z,0.00
2022-09-17T04:57:09.386Z,0.00
2022-09-17T05:01:13.797Z,0.00
2022-09-17T05:05:19.403Z,0.00
2022-09-17T05:09:22.063Z,0.00
2022-09-17T05:13:24.754Z,0.13
2022-09-17T05:17:27.458Z,0.00
2022-09-17T05:21:31.537Z,0.28
2022-09-17T05:25:34.218Z,0.00
2022-09-17T05:29:37.048Z,0.00
2022-09-17T05:33:39.733Z,0.00
2022-09-17T05:37:43.801Z,1.00
2022-09-17T05:41:46.458Z,0.00
2022-09-17T05:45:49.192Z,0.00
2022-09-17T05:49:51.942Z,0.00
2022-09-17T05:53:56.599Z,0.00
2022-09-17T05:57:59.258Z,0.00
2022-09-17T06:02:02.062Z,0.43
2022-09-17T06:06:05.197Z,0.93
2022-09-17T06:10:09.710Z,0.00
2022-09-17T06:14:12.514Z,0.05
2022-09-17T06:18:15.195Z,0.00
2022-09-17T06:22:19.460Z,0.08
2022-09-17T06:26:23.538Z,0.00
2022-09-17T06:30:26.188Z,0.10
2022-09-17T06:34:28.875Z,0.00
2022-09-17T06:38:33.518Z,0.00
2022-09-17T06:42:37.542Z,0.00
2022-09-17T06:46:40.308Z,0.00
2022-09-17T06:50:43.090Z,0.00
2022-09-17T06:54:45.757Z,0.00
2022-09-17T06:58:49.826Z,0.00
2022-09-17T07:03:02.062Z,0.00
2022-09-17T07:07:05.731Z,0.00
2022-09-17T07:11:09.001Z,0.00
2022-09-17T07:15:15.839Z,0.00
2022-09-17T07:19:18.496Z,9.65
2022-09-17T07:23:21.182Z,5.53
2022-09-17T07:27:23.871Z,8.38
2022-09-17T07:31:27.991Z,9.05
2022-09-17T07:35:30.839Z,6.25
2022-09-17T07:39:33.506Z,3.10
2022-09-17T07:43:36.882Z,9.82
2022-09-17T07:47:42.138Z,6.30
2022-09-17T07:51:44.822Z,9.35
2022-09-17T07:55:52.524Z,3.80
2022-09-17T07:59:55.249Z,3.85
2022-09-17T08:03:59.295Z,9.80
2022-09-17T08:08:02.792Z,6.80
2022-09-17T08:12:05.942Z,4.85
2022-09-17T08:16:13.130Z,3.40
2022-09-17T08:20:18.466Z,4.38
2022-09-17T08:24:21.179Z,2.83
2022-09-17T08:28:25.321Z,4.57
2022-09-17T08:32:30.680Z,6.85
2022-09-17T08:36:34.718Z,4.88
2022-09-17T08:40:44.058Z,5.30
2022-09-17T08:44:51.675Z,5.05
2022-09-17T08:49:07.776Z,8.65
2022-09-17T08:53:28.017Z,8.25
2022-09-17T08:57:38.443Z,7.10
2022-09-17T09:01:46.448Z,7.38
2022-09-17T09:05:52.648Z,3.30
2022-09-17T09:10:05.985Z,7.57
2022-09-17T09:14:21.007Z,7.28
2022-09-17T09:18:25.909Z,5.97
2022-09-17T09:22:46.567Z,9.88
2022-09-17T09:27:02.004Z,5.88
2022-09-17T09:31:16.399Z,6.68
2022-09-17T09:35:21.475Z,6.90
2022-09-17T09:39:34.648Z,6.78
2022-09-17T09:44:03.200Z,7.93
2022-09-17T09:48:18.129Z,8.45
2022-09-17T09:52:36.070Z,8.15
2022-09-17T09:56:54.323Z,5.32
2022-09-17T10:00:58.407Z,4.85
2022-09-17T10:05:09.547Z,6.18
2022-09-17T10:09:13.864Z,9.95
2022-09-17T10:13:17.752Z,7.35
2022-09-17T10:17:23.956Z,5.53
2022-09-17T10:21:34.996Z,6.22
2022-09-17T10:25:44.075Z,4.15
2022-09-17T10:29:49.126Z,5.85
2022-09-17T10:33:57.301Z,7.22
2022-09-17T10:38:00.007Z,6.57
2022-09-17T10:42:04.334Z,9.27
2022-09-17T10:46:10.820Z,7.80
2022-09-17T10:54:53.619Z,8.52
2022-09-17T10:59:06.014Z,7.53
2022-09-17T11:04:00.269Z,8.63
2022-09-17T11:08:11.786Z,14.07
2022-09-17T11:12:31.648Z,8.48
2022-09-17T11:16:41.821Z,6.43
2022-09-17T11:20:58.375Z,12.18
2022-09-17T11:25:18.695Z,8.95
2022-09-17T11:29:38.026Z,5.00
2022-09-17T11:33:56.819Z,8.88
2022-09-17T11:38:05.980Z,9.68
2022-09-17T11:42:16.359Z,2.40
2022-09-17T11:46:23.719Z,7.75
2022-09-17T11:50:30.210Z,2.35
2022-09-17T11:58:45.359Z,4.40
2022-09-17T12:02:54.012Z,1.80
2022-09-17T12:07:02.413Z,5.35
2022-09-17T12:11:11.031Z,3.80
2022-09-17T12:15:21.506Z,2.28
2022-09-17T12:19:33.453Z,6.75
2022-09-17T12:23:40.082Z,2.30
2022-09-17T12:27:52.694Z,7.15
2022-09-17T12:32:02.562Z,4.20
2022-09-17T12:36:29.487Z,1.98
2022-09-17T12:40:38.972Z,2.45
2022-09-17T12:45:00.425Z,1.10
2022-09-17T12:49:21.484Z,1.67
2022-09-17T12:53:30.178Z,1.20
2022-09-17T12:57:39.885Z,3.03
2022-09-17T13:01:52.113Z,3.90
2022-09-17T13:06:39.081Z,1.50
2022-09-17T13:10:51.521Z,2.58
2022-09-17T13:15:18.203Z,2.90
2022-09-17T13:19:30.380Z,3.03
2022-09-17T13:23:39.339Z,2.65
2022-09-17T13:27:42.984Z,3.25
2022-09-17T13:31:49.928Z,3.65
2022-09-17T13:35:52.964Z,0.93
2022-09-17T13:39:58.566Z,1.75
2022-09-17T13:44:02.955Z,0.82
2022-09-17T13:48:08.975Z,2.88
2022-09-17T14:00:52.178Z,2.90
2022-09-17T14:04:56.228Z,3.75
2022-09-17T14:09:03.146Z,2.00
2022-09-17T14:13:33.186Z,2.90
2022-09-17T14:17:53.926Z,3.45
2022-09-17T14:22:00.430Z,3.40
2022-09-17T14:26:06.090Z,3.67
2022-09-17T14:30:15.185Z,3.30
2022-09-17T14:34:23.344Z,0.65
2022-09-17T14:38:33.123Z,3.03
2022-09-17T14:42:37.446Z,2.67
2022-09-17T14:46:49.385Z,3.67
2022-09-17T14:50:54.090Z,5.95
2022-09-17T14:55:20.059Z,4.20
2022-09-17T14:59:29.158Z,3.38
2022-09-17T15:03:31.859Z,1.63
2022-09-17T15:07:35.984Z,1.48
2022-09-17T15:11:43.636Z,1.65
2022-09-17T15:15:54.839Z,0.77
2022-09-17T15:19:59.099Z,1.40
2022-09-17T15:24:15.024Z,1.20
2022-09-17T15:28:28.494Z,0.57
2022-09-17T15:32:32.155Z,2.78
2022-09-17T15:36:34.838Z,3.83
2022-09-17T15:40:41.966Z,0.65
2022-09-17T15:44:44.995Z,2.88
2022-09-17T15:48:47.772Z,1.23
2022-09-17T15:52:51.807Z,4.43
2022-09-17T15:56:58.527Z,3.13
2022-09-17T16:01:38.001Z,1.58
2022-09-17T16:05:46.487Z,2.05
2022-09-17T16:09:50.745Z,1.90
2022-09-17T16:13:56.207Z,2.85
2022-09-17T16:17:58.882Z,1.63
2022-09-17T16:22:01.512Z,1.58
2022-09-17T16:26:04.490Z,1.67
2022-09-17T16:30:14.483Z,0.90
2022-09-17T16:34:17.154Z,4.80
2022-09-17T16:38:19.818Z,1.17
2022-09-17T16:42:22.491Z,1.17
2022-09-17T16:46:26.817Z,0.90
2022-09-17T16:50:29.589Z,5.07
2022-09-17T16:54:32.295Z,0.73
2022-09-17T16:58:35.347Z,2.25
2022-09-17T17:02:39.460Z,5.35
2022-09-17T17:06:42.166Z,4.03
2022-09-17T17:10:44.850Z,3.22
2022-09-17T17:14:50.024Z,2.80
2022-09-17T17:18:55.496Z,1.40
2022-09-17T17:22:58.183Z,2.45
2022-09-17T17:27:01.620Z,1.77
2022-09-17T17:31:04.683Z,1.85
2022-09-17T17:35:09.963Z,0.85
2022-09-17T17:39:12.659Z,1.83
2022-09-17T17:43:15.371Z,1.42
2022-09-17T17:47:18.138Z,2.90
2022-09-17T17:51:23.776Z,0.90
2022-09-17T17:55:26.687Z,1.33
2022-09-17T17:59:29.606Z,1.45
2022-09-17T18:03:32.421Z,4.93
2022-09-17T18:07:36.741Z,3.47
2022-09-17T18:11:39.439Z,2.08
2022-09-17T18:15:51.997Z,2.88
2022-09-17T18:19:56.300Z,1.80
2022-09-17T18:24:00.336Z,3.58
2022-09-17T18:28:03.581Z,3.92
2022-09-17T18:32:06.367Z,9.30
2022-09-17T18:36:09.070Z,3.35
2022-09-17T18:40:13.732Z,2.88
2022-09-17T18:44:18.604Z,2.50
2022-09-17T18:48:21.266Z,5.20
2022-09-17T18:52:23.947Z,1.52
2022-09-17T18:56:29.307Z,3.08
2022-09-17T19:00:32.051Z,7.78
2022-09-17T19:04:34.750Z,3.10
2022-09-17T19:08:37.695Z,5.15
2022-09-17T19:12:43.132Z,2.25
2022-09-17T19:16:45.850Z,4.25
2022-09-17T19:20:48.525Z,2.47
2022-09-17T19:24:51.214Z,2.20
2022-09-17T19:28:57.478Z,7.45
2022-09-17T19:33:00.306Z,1.40
2022-09-17T19:37:03.858Z,1.92
2022-09-17T19:41:08.382Z,3.42
2022-09-17T19:45:12.486Z,4.22
2022-09-17T19:49:15.191Z,4.63
2022-09-17T19:53:17.877Z,3.30
2022-09-17T19:57:20.574Z,2.90
2022-09-17T20:01:24.699Z,2.42
2022-09-17T20:05:27.892Z,4.35
2022-09-17T20:09:33.072Z,3.72
2022-09-17T20:13:36.457Z,3.08
2022-09-17T20:17:40.568Z,3.97
2022-09-17T20:21:43.708Z,4.28
2022-09-17T20:25:52.474Z,6.55
2022-09-17T20:29:55.483Z,3.60
2022-09-17T20:34:01.418Z,3.95
2022-09-17T20:39:09.450Z,6.80
2022-09-17T20:42:30.145Z,3.75
2022-09-17T20:46:33.143Z,4.38
2022-09-17T20:50:37.191Z,3.28
2022-09-17T20:54:39.878Z,3.72
2022-09-17T20:58:48.412Z,5.40
2022-09-17T21:02:54.187Z,2.30
2022-09-17T21:06:58.216Z,2.95
2022-09-17T21:11:05.526Z,2.63
2022-09-17T21:15:08.926Z,3.03
2022-09-17T21:19:13.233Z,2.75
2022-09-17T21:23:17.324Z,4.13
2022-09-17T21:27:19.994Z,3.65
2022-09-17T21:31:29.588Z,3.78
2022-09-17T21:35:34.674Z,2.25
2022-09-17T21:39:38.958Z,2.97
2022-09-17T21:43:42.665Z,0.98
2022-09-17T21:47:45.341Z,0.85
2022-09-17T21:51:48.086Z,1.25
2022-09-17T21:55:52.132Z,1.17
2022-09-17T21:59:54.816Z,0.60
2022-09-17T22:03:57.542Z,1.48
2022-09-17T22:08:00.422Z,0.95
2022-09-17T22:12:06.381Z,1.65
2022-09-17T22:16:10.855Z,1.00
2022-09-17T22:20:14.131Z,0.82
2022-09-17T22:24:18.067Z,6.05
2022-09-17T22:28:24.999Z,0.95
2022-09-17T22:32:28.626Z,1.10
2022-09-17T22:36:31.338Z,3.20
2022-09-17T22:40:36.487Z,1.40
2022-09-17T22:44:40.990Z,1.27
2022-09-17T22:48:43.991Z,3.63
2022-09-17T22:52:48.245Z,1.73
2022-09-17T22:56:50.947Z,3.33
2022-09-17T23:00:55.731Z,2.58
2022-09-17T23:04:58.669Z,2.63
2022-09-17T23:09:01.438Z,5.30
2022-09-17T23:13:04.409Z,5.28
2022-09-17T23:17:08.449Z,6.47
2022-09-17T23:21:14.189Z,1.77
2022-09-17T23:25:16.950Z,4.88
2022-09-17T23:29:19.783Z,7.30
2022-09-17T23:33:23.798Z,4.18
2022-09-17T23:37:26.466Z,1.88
2022-09-17T23:41:30.729Z,5.18
2022-09-17T23:45:33.414Z,3.00
2022-09-17T23:49:37.586Z,7.38
2022-09-17T23:53:40.663Z,5.43
2022-09-17T23:57:43.957Z,2.72
